Home > Products > Valid Products > MTR

000
SAUS46 KSTO 010353
MTRBLU
METAR KBLU 010352Z AUTO 01004KT 10SM CLR 13/07 A3004 RMK AO2 SLP119
T01280072 $





000
SAUS46 KSTO 010253
MTRBLU
METAR KBLU 010252Z AUTO 34004KT 10SM CLR 13/07 A3004 RMK AO2 SLP122
T01280072 53003 $





000
SAUS46 KSTO 010210
MTRBLU
SPECI KBLU 010209Z AUTO 28004KT 10SM SCT029 13/08 A3004 RMK AO2
T01330078 $





000
SAUS46 KSTO 010153
MTRBLU
METAR KBLU 010152Z AUTO 30004KT 10SM BKN029 14/08 A3004 RMK AO2
SLP120 T01390078 $





000
SAUS46 KSTO 010141
MTRBLU
SPECI KBLU 010140Z AUTO 30006KT 10SM BKN027 14/08 A3004 RMK AO2
T01390078 $





000
SAUS46 KSTO 010053
MTRBLU
METAR KBLU 010052Z AUTO 29005KT 10SM SCT027 SCT044 15/08 A3004 RMK
AO2 SLP116 T01500078 $





000
SAUS46 KSTO 302353
MTRBLU
METAR KBLU 302352Z AUTO 23007KT 200V280 10SM FEW032 16/08 A3003 RMK
AO2 SLP109 T01610078 10172 20139 56010 $





000
SAUS46 KSTO 302253
MTRBLU
METAR KBLU 302252Z AUTO 21006KT 10SM SCT042 17/05 A3004 RMK AO2
SLP112 T01670050 $





000
SAUS46 KSTO 302153
MTRBLU
METAR KBLU 302152Z AUTO 27007KT 10SM CLR 16/05 A3005 RMK AO2 SLP116
T01610050 $





000
SAUS46 KSTO 302053
MTRBLU
METAR KBLU 302052Z AUTO 23005KT 10SM FEW037 SCT048 16/06 A3007 RMK
AO2 SLP120 T01560061 58006 $





000
SAUS46 KSTO 301953
MTRBLU
METAR KBLU 301952Z AUTO 22005KT 10SM BKN037 16/06 A3008 RMK AO2
SLP125 T01560056 $





000
SAUS46 KSTO 301853
MTRBLU
METAR KBLU 301852Z AUTO VRB06KT 10SM SCT032 15/06 A3009 RMK AO2
SLP128 T01500061 $





000
SAUS46 KSTO 301753
MTRBLU
METAR KBLU 301752Z AUTO VRB06KT 10SM SCT027 15/07 A3009 RMK AO2
SLP127 T01500067 10150 20100 58002 $





000
SAUS46 KSTO 301653
MTRBLU
METAR KBLU 301652Z AUTO 17004KT 10SM SCT028 13/07 A3010 RMK AO2
SLP136 T01330067 $





000
SAUS46 KSTO 301553
MTRBLU
METAR KBLU 301552Z AUTO 00000KT 10SM FEW026 12/07 A3010 RMK AO2
SLP138 T01220067 $





000
SAUS46 KSTO 301546
MTRBLU
SPECI KBLU 301544Z AUTO VRB03KT 10SM SCT026 12/07 A3010 RMK AO2
T01220072 $





000
SAUS46 KSTO 301454
MTRBLU
METAR KBLU 301452Z AUTO 00000KT 10SM BKN025 11/07 A3010 RMK AO2
SLP144 T01110067 53003 $





000
SAUS46 KSTO 301402
MTRBLU
SPECI KBLU 301401Z AUTO 00000KT 10SM BKN023 11/07 A3008 RMK AO2
T01060067





000
SAUS46 KSTO 301354
MTRBLU
METAR KBLU 301352Z AUTO 00000KT 10SM FEW020 SCT025 10/07 A3008 RMK
AO2 SLP139 T01000067





000
SAUS46 KSTO 301345
MTRBLU
SPECI KBLU 301344Z AUTO 00000KT 10SM BKN022 11/07 A3008 RMK AO2
T01060067





000
SAUS46 KSTO 301336
MTRBLU
SPECI KBLU 301335Z AUTO 13003KT 10SM SCT022 11/07 A3008 RMK AO2
T01060067





000
SAUS46 KSTO 301329
MTRBLU
SPECI KBLU 301327Z AUTO 14004KT 10SM BKN022 11/07 A3008 RMK AO2
T01060067





000
SAUS46 KSTO 301253
MTRBLU
METAR KBLU 301252Z AUTO 14004KT 10SM CLR 11/07 A3008 RMK AO2 SLP133
T01060067





000
SAUS46 KSTO 301153
MTRBLU
METAR KBLU 301152Z AUTO 00000KT 10SM CLR 11/07 A3009 RMK AO2 SLP128
T01110072 10139 20106 56006





000
SAUS46 KSTO 301053
MTRBLU
METAR KBLU 301052Z AUTO 14004KT 10SM CLR 11/07 A3009 RMK AO2 SLP129
T01110072





000
SAUS46 KSTO 300953
MTRBLU
METAR KBLU 300952Z AUTO 00000KT 10SM CLR 12/07 A3010 RMK AO2 SLP134
T01170072





000
SAUS46 KSTO 300853
MTRBLU
METAR KBLU 300852Z AUTO 15003KT 10SM CLR 13/07 A3011 RMK AO2 SLP134
T01280072 57007





000
SAUS46 KSTO 300753
MTRBLU
METAR KBLU 300752Z AUTO 00000KT 10SM CLR 12/07 A3011 RMK AO2 SLP138
T01220072 401670078





000
SAUS46 KSTO 300653
MTRBLU
METAR KBLU 300652Z AUTO 00000KT 10SM CLR 12/07 A3013 RMK AO2 SLP143
T01220072





000
SAUS46 KSTO 300553
MTRBLU
METAR KBLU 300552Z AUTO 00000KT 10SM CLR 13/07 A3013 RMK AO2 SLP145
T01330072 10161 20117 53005





000
SAUS46 KSTO 300454
MTRBLU
METAR KBLU 300452Z AUTO 00000KT 10SM CLR 13/07 A3012 RMK AO2 SLP145
T01280072





000
SAUS46 KSTO 300354
MTRBLU
METAR KBLU 300352Z AUTO 06004KT 10SM CLR 13/07 A3012 RMK AO2 SLP147
T01280072





000
SAUS46 KSTO 300253
MTRBLU
METAR KBLU 300252Z AUTO 04003KT 10SM CLR 12/08 A3012 RMK AO2 SLP150
T01220078 58001





000
SAUS46 KSTO 300154
MTRBLU
METAR KBLU 300152Z AUTO 00000KT 10SM CLR 13/08 A3012 RMK AO2 SLP147
T01330078





000
SAUS46 KSTO 300054
MTRBLU
METAR KBLU 300052Z AUTO 26005KT 10SM CLR 15/08 A3012 RMK AO2 SLP149
T01500078





000
SAUS46 KSTO 292354
MTRBLU
METAR KBLU 292352Z AUTO 27007KT 10SM CLR 16/07 A3012 RMK AO2 SLP145
T01610072 10167 20139 56005





000
SAUS46 KSTO 292253
MTRBLU
METAR KBLU 292252Z AUTO VRB06KT 10SM FEW030 SCT036 17/08 A3012 RMK
AO2 SLP147 T01670078





000
SAUS46 KSTO 292153
MTRBLU
METAR KBLU 292152Z AUTO VRB04KT 10SM FEW034 16/07 A3012 RMK AO2
SLP147 T01610067





000
SAUS46 KSTO 292053
MTRBLU
METAR KBLU 292052Z AUTO 26006KT 10SM CLR 16/06 A3014 RMK AO2 SLP152
T01610056 58000





000
SAUS46 KSTO 291953
MTRBLU
METAR KBLU 291952Z AUTO 27005KT 10SM CLR 15/06 A3014 RMK AO2 SLP157
T01500056





000
SAUS46 KSTO 291853
MTRBLU
METAR KBLU 291852Z AUTO 00000KT 10SM CLR 15/04 A3014 RMK AO2 SLP156
T01500044





000
SAUS46 KSTO 291753
MTRBLU
METAR KBLU 291752Z AUTO VRB05KT 10SM CLR 14/04 A3014 RMK AO2 SLP158
T01390044 10144 20089 51012





000
SAUS46 KSTO 291654
MTRBLU
METAR KBLU 291652Z AUTO 31004KT 10SM CLR 13/04 A3013 RMK AO2 SLP158
T01330039





000
SAUS46 KSTO 291554
MTRBLU
METAR KBLU 291552Z AUTO 30003KT 10SM CLR 12/02 A3012 RMK AO2 SLP160
T01220022





000
SAUS46 KSTO 291454
MTRBLU
METAR KBLU 291452Z AUTO 00000KT 10SM CLR 11/01 A3010 RMK AO2 SLP152
T01110006 53009





000
SAUS46 KSTO 291353
MTRBLU
METAR KBLU 291352Z AUTO 00000KT 10SM CLR 11/01 A3008 RMK AO2 SLP147
T01060011





000
SAUS46 KSTO 291253
MTRBLU
METAR KBLU 291252Z AUTO 04004KT 10SM CLR 09/01 A3007 RMK AO2 SLP144
T00940011





000
SAUS46 KSTO 291154
MTRBLU
METAR KBLU 291152Z AUTO 04003KT 10SM CLR 09/02 A3007 RMK AO2 SLP138
70009 T00940017 10100 20078 55003





000
SAUS46 KSTO 291054
MTRBLU
METAR KBLU 291052Z AUTO VRB06KT 10SM CLR 08/02 A3006 RMK AO2 SLP145
T00830022





000
SAUS46 KSTO 290954
MTRBLU
METAR KBLU 290952Z AUTO 04004KT 10SM CLR 09/02 A3005 RMK AO2 SLP139
T00890022





000
SAUS46 KSTO 290853
MTRBLU
METAR KBLU 290852Z AUTO 04004KT 10SM CLR 09/02 A3008 RMK AO2 SLP150
T00940017 53002





000
SAUS46 KSTO 290754
MTRBLU
METAR KBLU 290752Z AUTO 06003KT 10SM CLR 09/02 A3007 RMK AO2 SLP147
T00940022 401170072





000
SAUS46 KSTO 290653
MTRBLU
METAR KBLU 290652Z AUTO 06003KT 10SM CLR 09/03 A3007 RMK AO2 SLP151
T00890033





000
SAUS46 KSTO 290553
MTRBLU
METAR KBLU 290552Z AUTO 06004KT 10SM CLR 09/04 A3007 RMK AO2 SLP150
T00890039 10117 20078 51009





000
SAUS46 KSTO 290453
MTRBLU
METAR KBLU 290452Z AUTO 03004KT 10SM CLR 08/06 A3006 RMK AO2 SLP148
T00830056





000
SAUS46 KSTO 290353
MTRBLU
METAR KBLU 290352Z AUTO 05005KT 10SM FEW005 08/06 A3006 RMK AO2
SLP145 T00780061





000
SAUS46 KSTO 290346
MTRBLU
SPECI KBLU 290345Z AUTO 04006KT 10SM SCT005 08/06 A3005 RMK AO2
T00780061





000
SAUS46 KSTO 290333
MTRBLU
SPECI KBLU 290332Z AUTO 35007KT 10SM BKN005 08/07 A3005 RMK AO2
T00780067





000
SAUS46 KSTO 290317
MTRBLU
SPECI KBLU 290316Z AUTO 33007KT 3SM BR OVC004 08/07 A3005 RMK AO2
T00780067





000
SAUS46 KSTO 290314
MTRBLU
SPECI KBLU 290313Z AUTO 34005KT 1 1/2SM BR OVC004 08/07 A3005 RMK
AO2 T00780067





000
SAUS46 KSTO 290259
MTRBLU
SPECI KBLU 290257Z AUTO 09003KT 1/2SM FG VV002 08/07 A3004 RMK AO2
T00780067





000
SAUS46 KSTO 290253
MTRBLU
METAR KBLU 290252Z AUTO 00000KT 1/4SM FG VV001 08/07 A3004 RMK AO2
SLP137 T00830072 53005





000
SAUS46 KSTO 290242
MTRBLU
SPECI KBLU 290240Z AUTO 30004KT 1/4SM FG VV001 08/07 A3004 RMK AO2
T00830072





000
SAUS46 KSTO 290238
MTRBLU
SPECI KBLU 290236Z AUTO 29004KT 3/4SM BR OVC002 08/07 A3003 RMK AO2
T00830072





000
SAUS46 KSTO 290233
MTRBLU
SPECI KBLU 290232Z AUTO 28003KT 1 3/4SM BR OVC002 08/07 A3004 RMK
AO2 VIS 3/4V5 T00830072





000
SAUS46 KSTO 290222
MTRBLU
SPECI KBLU 290220Z AUTO 00000KT 6SM BR OVC002 09/07 A3003 RMK AO2
T00890072





000
SAUS46 KSTO 290215
MTRBLU
SPECI KBLU 290213Z AUTO 00000KT 2 1/2SM BR OVC002 09/07 A3003 RMK
AO2 T00890072





000
SAUS46 KSTO 290206
MTRBLU
SPECI KBLU 290205Z AUTO 00000KT 1 1/2SM BR OVC002 09/07 A3003 RMK
AO2 T00890072





000
SAUS46 KSTO 290200
MTRBLU
SPECI KBLU 290159Z AUTO 00000KT 1/2SM FG OVC002 09/07 A3003 RMK AO2
T00890072





000
SAUS46 KSTO 290153
MTRBLU
METAR KBLU 290152Z AUTO 00000KT 1SM BR OVC002 09/07 A3003 RMK AO2
VIS 1/4V5 SLP134 T00890072





000
SAUS46 KSTO 290151
MTRBLU
SPECI KBLU 290150Z AUTO 00000KT 1 3/4SM BR BKN003 09/07 A3003 RMK
AO2 VIS 1/2V5





000
SAUS46 KSTO 290144
MTRBLU
SPECI KBLU 290142Z AUTO 28003KT 10SM BKN003 09/07 A3003 RMK AO2 CIG
002V006 T00890072





000
SAUS46 KSTO 290120
MTRBLU
SPECI KBLU 290118Z AUTO 28003KT 10SM FEW005 10/07 A3003 RMK AO2
T01000072





000
SAUS46 KSTO 290054
MTRBLU
METAR KBLU 290052Z AUTO 26004KT 10SM CLR 10/06 A3002 RMK AO2 SLP130
T01000061





000
SAUS46 KSTO 282354
MTRBLU
METAR KBLU 282352Z AUTO 00000KT 10SM FEW055 11/05 A3002 RMK AO2
SLP126 60005 T01110050 10111 20072 52001





000
SAUS46 KSTO 282321
MTRBLU
SPECI KBLU 282320Z AUTO 00000KT 10SM FEW008 BKN048 OVC060 11/06
A3003 RMK AO2 T01060056





000
SAUS46 KSTO 282314
MTRBLU
SPECI KBLU 282313Z AUTO 00000KT 10SM FEW008 BKN013 OVC065 11/06
A3003 RMK AO2 T01060061





000
SAUS46 KSTO 282306
MTRBLU
SPECI KBLU 282304Z AUTO 01003KT 10SM SCT009 BKN050 OVC060 10/07
A3003 RMK AO2 T01000067





000
SAUS46 KSTO 282254
MTRBLU
METAR KBLU 282252Z AUTO 00000KT 10SM BKN050 OVC060 09/06 A3002 RMK
AO2 RAB2154E03B18E49 SLP131 P0000 T00940061





000
SAUS46 KSTO 282242
MTRBLU
SPECI KBLU 282241Z AUTO 04003KT 10SM -RA SCT010 BKN044 OVC055 09/06
A3003 RMK AO2 RAB2154E03B18 P0000 T00890056





000
SAUS46 KSTO 282229
MTRBLU
SPECI KBLU 282228Z AUTO VRB03KT 10SM -RA FEW007 BKN012 OVC048 09/06
A3003 RMK AO2 RAB2154E03B18 P0000 T00940061





000
SAUS46 KSTO 282217
MTRBLU
SPECI KBLU 282216Z AUTO VRB04KT 10SM SCT010 BKN014 OVC037 10/07
A3003 RMK AO2 RAB2154E03 P0000 T01000067





000
SAUS46 KSTO 282153
MTRBLU
METAR KBLU 282152Z AUTO 00000KT 10SM FEW007 FEW014 OVC035 09/06
A3002 RMK AO2 SLP128 T00940061





000
SAUS46 KSTO 282143
MTRBLU
SPECI KBLU 282142Z AUTO 16003KT 10SM FEW007 OVC033 09/06 A3002 RMK
AO2 T00890056





000
SAUS46 KSTO 282053
MTRBLU
METAR KBLU 282052Z AUTO 16004KT 10SM SCT009 BKN015 OVC031 08/06
A3001 RMK AO2 RAE07 SLP130 P0000 60005 T00830061 50002





000
SAUS46 KSTO 282029
MTRBLU
SPECI KBLU 282028Z AUTO 17004KT 10SM FEW006 BKN013 OVC029 08/06
A3002 RMK AO2 RAE07 P0000 T00830061





000
SAUS46 KSTO 282003
MTRBLU
SPECI KBLU 282002Z AUTO 17004KT 10SM -RA FEW005 BKN017 OVC029 08/06
A3002 RMK AO2 P0000 T00780056





000
SAUS46 KSTO 281953
MTRBLU
METAR KBLU 281952Z AUTO 17005KT 8SM -RA SCT005 BKN014 OVC021 08/06
A3002 RMK AO2 SLP132 P0003 T00780061





000
SAUS46 KSTO 281944
MTRBLU
SPECI KBLU 281943Z AUTO 17004KT 9SM -RA SCT005 BKN013 OVC021 08/06
A3002 RMK AO2 P0002 T00780056





000
SAUS46 KSTO 281937
MTRBLU
SPECI KBLU 281936Z AUTO 16003KT 9SM -RA SCT006 BKN015 OVC029 08/06
A3002 RMK AO2 CIG 010V023 P0002 T00830056





000
SAUS46 KSTO 281928
MTRBLU
SPECI KBLU 281927Z AUTO 18004KT 8SM -RA SCT004 BKN008 OVC031 08/06
A3001 RMK AO2 CIG 007V011 P0002 T00780061





000
SAUS46 KSTO 281853
MTRBLU
METAR KBLU 281852Z AUTO 17005KT 6SM -RA BR BKN004 OVC065 08/06 A3001
RMK AO2 SLP130 P0002 T00780061





000
SAUS46 KSTO 281827
MTRBLU
SPECI KBLU 281826Z AUTO 20003KT 10SM -RA BKN004 BKN008 OVC033 08/06
A3001 RMK AO2 P0001 T00780056





000
SAUS46 KSTO 281753
MTRBLU
METAR KBLU 281752Z AUTO 17003KT 10SM -RA SCT003 BKN007 OVC012 07/06
A3001 RMK AO2 SLP130 P0003 60004 T00720056 10094 20072 53016





000
SAUS46 KSTO 281743
MTRBLU
SPECI KBLU 281742Z AUTO 18003KT 6SM -RA BR SCT003 BKN007 OVC046
07/06 A3000 RMK AO2 P0003 T00720056





000
SAUS46 KSTO 281732
MTRBLU
SPECI KBLU 281731Z AUTO 17003KT 4SM -RA BR SCT004 OVC043 08/06 A3000
RMK AO2 P0002 T00780061





000
SAUS46 KSTO 281653
MTRBLU
METAR KBLU 281652Z AUTO 00000KT 10SM -RA BKN043 OVC050 08/04 A2999
RMK AO2 RAE1555B19 SLP120 P0001 T00780044





000
SAUS46 KSTO 281553
MTRBLU
METAR KBLU 281552Z AUTO 00000KT 10SM -RA SCT055 OVC070 08/04 A2996
RMK AO2 RAB40 SLP109 P0000 T00830044





000
SAUS46 KSTO 281453
MTRBLU
METAR KBLU 281452Z AUTO 00000KT 10SM FEW120 09/03 A2995 RMK AO2
SLP105 T00890028 53009





000
SAUS46 KSTO 281353
MTRBLU
METAR KBLU 281352Z AUTO 00000KT 10SM SCT075 08/02 A2993 RMK AO2
SLP101 T00830022





000
SAUS46 KSTO 281253
MTRBLU
METAR KBLU 281252Z AUTO 02003KT 10SM CLR 08/03 A2992 RMK AO2 SLP096
T00780028





000
SAUS46 KSTO 281153
MTRBLU
METAR KBLU 281152Z AUTO 00000KT 10SM CLR 08/03 A2992 RMK AO2 SLP094
70014 T00830028 10089 20067 56010





000
SAUS46 KSTO 281053
MTRBLU
METAR KBLU 281052Z AUTO 36003KT 10SM CLR 08/03 A2993 RMK AO2 SLP098
T00780028





000
SAUS46 KSTO 280953
MTRBLU
METAR KBLU 280952Z AUTO 00000KT 10SM BKN035 09/02 A2993 RMK AO2
SLP096 T00890022





000
SAUS46 KSTO 280853
MTRBLU
METAR KBLU 280852Z AUTO 00000KT 10SM BKN035 OVC070 08/03 A2995 RMK
AO2 SLP106 T00830028 53002





000
SAUS46 KSTO 280753
MTRBLU
METAR KBLU 280752Z AUTO 00000KT 10SM OVC060 08/03 A2993 RMK AO2
SLP097 T00830028 401110061





000
SAUS46 KSTO 280653
MTRBLU
METAR KBLU 280652Z AUTO 00000KT 10SM SCT065 BKN110 08/03 A2995 RMK
AO2 SLP102 T00830033





000
SAUS46 KSTO 280553
MTRBLU
METAR KBLU 280552Z AUTO 00000KT 10SM OVC070 08/04 A2994 RMK AO2
SLP100 60008 T00830044 10100 20072 55001





000
SAUS46 KSTO 280453
MTRBLU
METAR KBLU 280452Z AUTO 00000KT 10SM OVC070 08/05 A2994 RMK AO2
SLP102 T00830050





    US Dept of Commerce
    National Oceanic and Atmospheric Administration
    National Weather Service
    1325 East West Highway
    Silver Spring, MD 20910
    Page Author: NWS Internet Services Team
Disclaimer
Information Quality
Credits
Glossary
Privacy Policy
Freedom of Information Act (FOIA)
About Us
Career Opportunities